Time;durP1;ratioP1;P1;durP2;ratioP2;P2;SDS_P1;SDS_P2;PMS_P1;PMS_P2;Temp;Humidity;BMP_temperature;BMP_pressure;BME280_temperature;BME280_humidity;BME280_pressure;Samples;Min_cycle;Max_cycle;Signal;HPM_P1;HPM_P2
2023/06/12 00:02:18;;;;;;;12.27;10.82;;;23.10;73.20;;;;;;5032282;28;20049;-55
2023/06/12 00:05:04;;;;;;;11.85;10.75;;;23.00;73.00;;;;;;5033244;28;20025;-54
2023/06/12 00:07:56;;;;;;;11.85;10.85;;;22.90;73.50;;;;;;5032583;28;20036;-54
2023/06/12 00:10:43;;;;;;;14.35;10.57;;;22.90;73.20;;;;;;5032871;28;20120;-50
2023/06/12 00:13:29;;;;;;;11.55;10.30;;;22.90;73.40;;;;;;5028151;28;20022;-53
2023/06/12 00:16:18;;;;;;;11.88;10.68;;;22.80;73.20;;;;;;5013344;28;20026;-50
2023/06/12 00:19:04;;;;;;;11.32;10.13;;;22.80;73.40;;;;;;5011690;28;20034;-51
2023/06/12 00:21:51;;;;;;;11.90;10.85;;;22.70;73.70;;;;;;5016001;28;20046;-54
2023/06/12 00:24:37;;;;;;;11.73;10.63;;;22.60;73.60;;;;;;5014305;28;20030;-50
2023/06/12 00:27:23;;;;;;;10.73;9.73;;;22.40;74.00;;;;;;5013344;28;20100;-54
2023/06/12 00:30:10;;;;;;;11.27;10.07;;;22.40;74.10;;;;;;5017238;28;20022;-51
2023/06/12 00:32:56;;;;;;;10.65;9.65;;;22.40;73.90;;;;;;5015193;28;20383;-50
2023/06/12 00:35:42;;;;;;;12.55;10.30;;;22.40;73.90;;;;;;5030856;28;20498;-51
2023/06/12 00:38:28;;;;;;;10.90;9.77;;;22.50;73.70;;;;;;5017647;28;20014;-54
2023/06/12 00:41:15;;;;;;;11.48;9.98;;;22.50;73.70;;;;;;5028044;28;20038;-55
2023/06/12 00:44:01;;;;;;;11.00;9.88;;;22.40;73.60;;;;;;5025275;28;20105;-49
2023/06/12 00:46:47;;;;;;;11.27;10.05;;;22.40;74.00;;;;;;5011772;28;20690;-50
2023/06/12 00:49:33;;;;;;;10.63;9.52;;;22.40;73.90;;;;;;5031158;28;20033;-50
2023/06/12 00:52:24;;;;;;;11.38;10.27;;;22.30;73.80;;;;;;5031788;28;20030;-51
2023/06/12 00:55:11;;;;;;;10.68;9.57;;;22.30;73.90;;;;;;5032166;28;20505;-50
2023/06/12 00:57:57;;;;;;;10.75;9.75;;;22.30;73.90;;;;;;5031434;28;20421;-54
2023/06/12 01:00:44;;;;;;;11.80;9.93;;;22.20;73.80;;;;;;5030839;28;20032;-55
2023/06/12 01:03:32;;;;;;;11.38;10.32;;;22.20;73.60;;;;;;5023289;28;20117;-51
2023/06/12 01:06:22;;;;;;;13.25;10.52;;;22.20;73.30;;;;;;5012715;28;20407;-55
2023/06/12 01:09:20;;;;;;;10.18;9.18;;;22.20;73.80;;;;;;5012089;28;20606;-51
2023/06/12 01:12:08;;;;;;;12.20;9.80;;;22.10;73.90;;;;;;5015891;28;20022;-54
2023/06/12 01:14:54;;;;;;;11.15;10.15;;;22.00;73.90;;;;;;5013575;28;20533;-52
2023/06/12 01:17:42;;;;;;;11.77;9.43;;;22.00;74.00;;;;;;5011925;28;20616;-52
2023/06/12 01:20:28;;;;;;;10.60;9.60;;;21.90;73.80;;;;;;5011981;28;20026;-54
2023/06/12 01:23:29;;;;;;;12.75;9.48;;;22.00;73.80;;;;;;5022436;28;20040;-55
2023/06/12 01:26:34;;;;;;;10.55;9.55;;;22.00;73.80;;;;;;5031468;28;20486;-51
2023/06/12 01:29:23;;;;;;;10.32;9.27;;;21.90;73.80;;;;;;5031114;28;20022;-55
2023/06/12 01:32:15;;;;;;;11.15;9.30;;;21.80;73.90;;;;;;5032548;28;20040;-54
2023/06/12 01:35:15;;;;;;;10.82;9.73;;;21.90;74.00;;;;;;5036622;28;20123;-54
2023/06/12 01:38:01;;;;;;;10.70;9.60;;;21.80;73.70;;;;;;5019316;28;20034;-56
2023/06/12 01:40:49;;;;;;;12.27;9.55;;;21.70;74.00;;;;;;5015676;28;20022;-58
2023/06/12 01:43:37;;;;;;;10.55;9.27;;;21.60;74.40;;;;;;5016390;28;20077;-54
2023/06/12 01:46:23;;;;;;;14.15;9.23;;;21.40;74.70;;;;;;5018075;28;20020;-52
2023/06/12 01:49:09;;;;;;;13.55;9.50;;;21.40;74.50;;;;;;5017706;28;20029;-54
2023/06/12 01:51:55;;;;;;;10.60;9.48;;;21.20;74.80;;;;;;5028103;28;20034;-53
2023/06/12 01:54:41;;;;;;;13.20;10.00;;;21.10;75.30;;;;;;5016387;28;20084;-55
2023/06/12 01:57:30;;;;;;;11.00;9.90;;;20.90;75.90;;;;;;5013988;28;20038;-52
2023/06/12 02:00:17;;;;;;;12.10;10.85;;;20.80;76.00;;;;;;5015773;28;20556;-55
2023/06/12 02:03:04;;;;;;;10.45;9.40;;;20.70;76.60;;;;;;5027850;28;20053;-54
2023/06/12 02:05:50;;;;;;;11.25;9.70;;;20.70;76.90;;;;;;5034659;28;20517;-54
2023/06/12 02:08:36;;;;;;;10.90;8.63;;;20.80;76.60;;;;;;5020545;28;20402;-53
2023/06/12 02:11:22;;;;;;;10.93;9.65;;;20.80;76.60;;;;;;5017395;28;20064;-57
2023/06/12 02:14:08;;;;;;;12.13;10.25;;;20.80;76.60;;;;;;5036449;28;20030;-56
2023/06/12 02:16:54;;;;;;;10.85;9.77;;;20.80;77.00;;;;;;5033962;28;20481;-57
2023/06/12 02:19:40;;;;;;;12.20;9.63;;;20.70;76.70;;;;;;5035675;28;20040;-55
2023/06/12 02:22:25;;;;;;;10.10;9.10;;;20.60;76.80;;;;;;5034599;28;20036;-52
2023/06/12 02:25:11;;;;;;;10.65;9.55;;;20.60;77.00;;;;;;5035778;28;20041;-52
2023/06/12 02:27:57;;;;;;;11.77;9.55;;;20.50;76.90;;;;;;5033246;28;20036;-52
2023/06/12 02:30:43;;;;;;;11.93;9.70;;;20.40;77.10;;;;;;5033716;28;20029;-51
2023/06/12 02:33:31;;;;;;;10.57;9.07;;;20.40;76.90;;;;;;5015180;28;20059;-52
2023/06/12 02:36:17;;;;;;;11.00;9.35;;;20.40;77.20;;;;;;5015668;28;20426;-50
2023/06/12 02:39:03;;;;;;;10.82;9.73;;;20.40;77.00;;;;;;5015017;28;20030;-54
2023/06/12 02:41:49;;;;;;;11.32;10.23;;;20.40;76.60;;;;;;5013548;28;20034;-53
2023/06/12 02:44:35;;;;;;;12.35;9.75;;;20.30;76.60;;;;;;5014564;28;20033;-53
2023/06/12 02:47:21;;;;;;;11.30;10.25;;;20.20;76.60;;;;;;5029519;28;20389;-52
2023/06/12 02:50:08;;;;;;;10.70;9.63;;;20.10;76.80;;;;;;5032135;28;20498;-53
2023/06/12 02:52:53;;;;;;;15.77;9.30;;;20.10;76.80;;;;;;5018213;28;20109;-54
2023/06/12 02:55:39;;;;;;;10.98;9.93;;;20.10;76.40;;;;;;5014602;28;20025;-53
2023/06/12 02:58:25;;;;;;;12.55;10.38;;;20.10;76.40;;;;;;5015658;28;20022;-54
2023/06/12 03:01:11;;;;;;;10.60;9.35;;;20.10;76.20;;;;;;5029708;28;20106;-57
2023/06/12 03:03:58;;;;;;;12.18;10.27;;;20.10;76.20;;;;;;5028871;28;20037;-58
2023/06/12 03:06:44;;;;;;;10.80;9.70;;;20.00;75.70;;;;;;5016591;28;20030;-55
2023/06/12 03:09:32;;;;;;;11.32;10.13;;;19.90;76.10;;;;;;5013851;28;20041;-53
2023/06/12 03:12:18;;;;;;;12.73;9.90;;;19.90;76.60;;;;;;5027090;28;20035;-51
2023/06/12 03:15:05;;;;;;;11.02;9.82;;;19.90;76.20;;;;;;5033585;28;20071;-53
2023/06/12 03:17:50;;;;;;;10.45;9.55;;;19.90;75.80;;;;;;5034033;28;20033;-52
2023/06/12 03:20:37;;;;;;;10.95;9.93;;;19.90;75.90;;;;;;5033555;28;20119;-53
2023/06/12 03:23:23;;;;;;;11.20;10.10;;;19.90;75.70;;;;;;5033386;28;20375;-55
2023/06/12 03:26:09;;;;;;;10.25;9.23;;;19.90;76.00;;;;;;5034978;28;20026;-53
2023/06/12 03:28:55;;;;;;;13.10;10.27;;;19.90;75.80;;;;;;5035040;28;20104;-53
2023/06/12 03:31:41;;;;;;;12.43;9.80;;;20.00;75.60;;;;;;5021730;28;20096;-53
2023/06/12 03:34:27;;;;;;;11.35;10.25;;;20.00;76.00;;;;;;5014100;28;20108;-54
2023/06/12 03:37:13;;;;;;;10.77;9.68;;;20.10;75.40;;;;;;5013412;28;20557;-57
2023/06/12 03:39:59;;;;;;;14.55;9.98;;;20.00;75.90;;;;;;5018347;28;20486;-55
2023/06/12 03:42:45;;;;;;;14.88;10.60;;;20.00;75.30;;;;;;5033512;28;20032;-53
2023/06/12 03:45:31;;;;;;;12.00;10.38;;;20.00;75.10;;;;;;5034136;28;20029;-55
2023/06/12 03:48:17;;;;;;;11.80;9.70;;;20.00;75.00;;;;;;5022191;28;20026;-55
2023/06/12 03:51:03;;;;;;;11.02;9.57;;;20.00;75.20;;;;;;5016524;28;20463;-55
2023/06/12 03:53:49;;;;;;;14.70;10.27;;;19.90;74.90;;;;;;5015024;28;20398;-56
2023/06/12 03:56:35;;;;;;;11.60;10.10;;;20.00;74.50;;;;;;5026396;28;20117;-56
2023/06/12 03:59:21;;;;;;;11.57;9.57;;;20.00;74.90;;;;;;5029363;28;20486;-56
2023/06/12 04:02:07;;;;;;;10.38;9.27;;;20.00;74.70;;;;;;5032710;28;20029;-52
2023/06/12 04:04:53;;;;;;;11.52;10.43;;;20.00;74.70;;;;;;5034637;28;20021;-58
2023/06/12 04:07:39;;;;;;;12.93;10.65;;;20.00;74.70;;;;;;5020912;28;20568;-58
2023/06/12 04:10:25;;;;;;;11.23;9.88;;;20.00;74.90;;;;;;5022900;28;20445;-56
2023/06/12 04:13:12;;;;;;;12.73;10.00;;;20.00;74.80;;;;;;5038198;28;20032;-58
2023/06/12 04:15:58;;;;;;;11.60;10.25;;;20.00;74.90;;;;;;5025680;28;20040;-58
2023/06/12 04:18:45;;;;;;;10.50;9.25;;;20.10;74.70;;;;;;5029045;28;20041;-57
2023/06/12 04:21:32;;;;;;;11.07;9.85;;;20.20;74.50;;;;;;5027865;28;20033;-57
2023/06/12 04:24:19;;;;;;;10.90;9.20;;;20.20;74.30;;;;;;5013865;28;20029;-58
2023/06/12 04:27:09;;;;;;;12.52;8.95;;;20.20;74.30;;;;;;5016743;28;20034;-58
2023/06/12 04:29:57;;;;;;;14.57;10.20;;;20.30;74.30;;;;;;5029021;28;20418;-60
2023/06/12 04:32:43;;;;;;;13.63;9.43;;;20.30;73.90;;;;;;5031905;28;20498;-58
2023/06/12 04:35:29;;;;;;;10.20;9.15;;;20.20;73.60;;;;;;5032346;28;20084;-56
2023/06/12 04:38:15;;;;;;;11.73;10.15;;;20.20;73.70;;;;;;5012767;28;20029;-59
2023/06/12 04:41:01;;;;;;;11.82;9.30;;;20.10;73.70;;;;;;5013072;28;20408;-56
2023/06/12 04:43:48;;;;;;;14.77;10.88;;;20.10;73.50;;;;;;5031737;28;20438;-59
2023/06/12 04:46:35;;;;;;;10.57;9.48;;;20.10;73.40;;;;;;5015798;28;20029;-56
2023/06/12 04:49:22;;;;;;;12.50;10.15;;;20.10;73.30;;;;;;5013302;28;20053;-58
2023/06/12 04:52:09;;;;;;;11.15;9.30;;;20.10;73.60;;;;;;5012745;28;20030;-56
2023/06/12 04:54:55;;;;;;;10.75;8.45;;;20.10;73.60;;;;;;5011891;28;20026;-59
2023/06/12 04:57:43;;;;;;;11.23;8.73;;;20.30;73.70;;;;;;5011694;28;20038;-57
2023/06/12 05:00:30;;;;;;;11.68;8.85;;;20.30;73.10;;;;;;5011342;28;20034;-58
2023/06/12 05:03:17;;;;;;;12.68;8.98;;;20.40;73.10;;;;;;5012576;28;20033;-59
2023/06/12 05:06:03;;;;;;;9.30;8.40;;;20.50;72.50;;;;;;5011069;28;20506;-58
2023/06/12 05:08:49;;;;;;;10.02;8.65;;;20.60;72.30;;;;;;5011429;28;20398;-58
2023/06/12 05:11:35;;;;;;;10.52;8.48;;;20.60;72.10;;;;;;5012580;28;20486;-58
2023/06/12 05:14:21;;;;;;;11.18;8.82;;;20.60;72.20;;;;;;5012324;28;20069;-58
2023/06/12 05:17:07;;;;;;;10.10;8.40;;;20.60;72.10;;;;;;5011908;28;20034;-58
2023/06/12 05:19:53;;;;;;;11.05;8.20;;;20.80;71.80;;;;;;5012524;28;20056;-57
2023/06/12 05:22:39;;;;;;;10.40;8.40;;;20.80;71.00;;;;;;5026184;28;20037;-59
2023/06/12 05:25:25;;;;;;;8.65;7.72;;;20.90;71.00;;;;;;5032779;28;20112;-59
2023/06/12 05:28:11;;;;;;;8.68;7.25;;;20.90;71.00;;;;;;5030866;28;20026;-58
2023/06/12 05:30:57;;;;;;;8.93;8.00;;;20.90;70.50;;;;;;5031110;28;20040;-59
2023/06/12 05:33:43;;;;;;;12.18;7.70;;;20.90;70.40;;;;;;5031762;28;20037;-59
2023/06/12 05:36:29;;;;;;;9.50;8.15;;;20.90;70.60;;;;;;5028207;28;20033;-58
2023/06/12 05:39:15;;;;;;;9.85;8.27;;;21.00;70.10;;;;;;5012126;28;20062;-58
2023/06/12 05:42:01;;;;;;;8.80;7.80;;;21.00;69.90;;;;;;5011750;28;20114;-60
2023/06/12 05:44:47;;;;;;;11.98;7.30;;;21.10;69.70;;;;;;5028881;28;20030;-59
2023/06/12 05:47:33;;;;;;;9.98;6.97;;;21.20;69.60;;;;;;5031459;28;20026;-59
2023/06/12 05:50:19;;;;;;;14.27;7.47;;;21.30;69.50;;;;;;5031508;28;20057;-58
2023/06/12 05:53:05;;;;;;;9.75;7.22;;;21.40;69.00;;;;;;5031423;28;20079;-57
2023/06/12 05:55:51;;;;;;;10.48;7.57;;;21.50;68.90;;;;;;5032634;28;20030;-59
2023/06/12 05:58:37;;;;;;;13.50;7.68;;;21.60;68.70;;;;;;5013041;28;20064;-59
2023/06/12 06:01:25;;;;;;;19.13;8.93;;;21.60;68.50;;;;;;5011755;28;20034;-56
2023/06/12 06:04:11;;;;;;;11.05;7.18;;;21.70;68.50;;;;;;5012326;28;20495;-57
2023/06/12 06:06:57;;;;;;;20.40;8.18;;;21.70;68.50;;;;;;5012363;28;20037;-58
2023/06/12 06:09:43;;;;;;;31.08;10.82;;;21.80;68.60;;;;;;5012615;28;20026;-57
2023/06/12 06:12:32;;;;;;;16.92;10.05;;;21.80;68.40;;;;;;5012497;28;20105;-59
2023/06/12 06:15:19;;;;;;;31.20;10.90;;;21.80;68.10;;;;;;5019843;28;20030;-51
2023/06/12 06:18:04;;;;;;;47.60;12.20;;;21.80;68.10;;;;;;5012535;28;20444;-54
2023/06/12 06:20:52;;;;;;;14.63;8.65;;;21.50;69.70;;;;;;5015093;28;20030;-51
2023/06/12 06:23:39;;;;;;;16.42;8.50;;;21.20;70.50;;;;;;5014751;28;20022;-52
2023/06/12 06:26:25;;;;;;;219.80;39.45;;;21.20;70.90;;;;;;5015595;28;20118;-52
2023/06/12 06:29:11;;;;;;;156.38;28.17;;;21.20;71.20;;;;;;5015100;28;20022;-55
2023/06/12 06:31:57;;;;;;;29.95;11.23;;;21.20;71.30;;;;;;5010608;28;20038;-57
2023/06/12 06:34:43;;;;;;;31.00;10.40;;;21.30;70.80;;;;;;5015929;28;20026;-55
2023/06/12 06:37:29;;;;;;;88.63;17.27;;;21.40;71.00;;;;;;5023840;28;20033;-51
2023/06/12 06:40:15;;;;;;;27.75;10.63;;;21.40;71.20;;;;;;5033968;28;20080;-51
2023/06/12 06:43:01;;;;;;;11.18;7.43;;;21.60;70.70;;;;;;5020962;28;20633;-54
2023/06/12 06:45:47;;;;;;;11.48;6.93;;;21.60;70.10;;;;;;5041648;28;20053;-53
2023/06/12 06:48:33;;;;;;;9.48;6.80;;;21.50;69.60;;;;;;5034883;28;20029;-51
2023/06/12 06:51:19;;;;;;;13.05;7.80;;;21.50;69.70;;;;;;5034010;28;20537;-53
2023/06/12 06:54:05;;;;;;;24.35;9.57;;;21.60;68.90;;;;;;5034018;28;20489;-52
2023/06/12 06:56:51;;;;;;;11.68;6.78;;;21.60;67.80;;;;;;5034078;28;20040;-54
2023/06/12 06:59:37;;;;;;;9.35;6.63;;;21.70;67.10;;;;;;5034948;28;20421;-54
2023/06/12 07:02:23;;;;;;;9.93;6.53;;;21.80;66.90;;;;;;5031764;28;20131;-55
2023/06/12 07:05:09;;;;;;;8.32;6.47;;;21.90;66.80;;;;;;5037246;28;20033;-52
2023/06/12 07:07:55;;;;;;;9.23;7.18;;;22.00;65.70;;;;;;5036417;28;20491;-50
2023/06/12 07:10:41;;;;;;;9.73;6.75;;;21.80;65.50;;;;;;5021572;28;20041;-52
2023/06/12 07:13:27;;;;;;;7.35;6.53;;;21.80;65.10;;;;;;5023425;28;20080;-51
2023/06/12 07:16:14;;;;;;;8.02;6.45;;;21.90;65.40;;;;;;5033001;28;20490;-54
2023/06/12 07:18:59;;;;;;;9.02;6.40;;;21.90;66.10;;;;;;5035239;28;20502;-52
2023/06/12 07:21:45;;;;;;;8.07;6.43;;;22.10;65.70;;;;;;5027578;28;20452;-51
2023/06/12 07:24:32;;;;;;;7.85;6.13;;;22.10;65.10;;;;;;5033170;28;20021;-52
2023/06/12 07:27:18;;;;;;;10.10;6.80;;;22.30;65.00;;;;;;5033289;28;20099;-53
2023/06/12 07:30:05;;;;;;;7.38;6.07;;;22.40;64.60;;;;;;5012785;28;20034;-50
2023/06/12 07:32:51;;;;;;;9.90;6.35;;;22.50;64.60;;;;;;5015596;28;20034;-50
2023/06/12 07:35:37;;;;;;;9.27;6.10;;;22.50;64.50;;;;;;5015297;28;20034;-52
2023/06/12 07:38:23;;;;;;;9.18;6.15;;;22.50;64.30;;;;;;5015701;28;20034;-53
2023/06/12 07:41:09;;;;;;;7.90;5.75;;;22.50;63.40;;;;;;5024503;28;20026;-55
2023/06/12 07:43:55;;;;;;;10.68;7.20;;;22.60;63.70;;;;;;5029705;28;20113;-56
2023/06/12 07:46:42;;;;;;;11.30;7.90;;;22.70;63.30;;;;;;5035133;28;20034;-56
2023/06/12 07:49:28;;;;;;;8.77;6.95;;;22.80;63.20;;;;;;5037493;28;20021;-49
2023/06/12 07:52:14;;;;;;;8.70;6.53;;;22.80;63.20;;;;;;5017577;28;20050;-53
2023/06/12 07:55:01;;;;;;;7.20;6.30;;;22.90;63.40;;;;;;5024286;28;20033;-52
2023/06/12 07:57:50;;;;;;;12.02;6.53;;;22.90;63.20;;;;;;5019051;28;20041;-51
2023/06/12 08:00:36;;;;;;;10.52;6.45;;;23.00;63.00;;;;;;5029558;28;20457;-56
2023/06/12 08:03:24;;;;;;;22.88;18.80;;;23.10;62.70;;;;;;5032575;28;20033;-59
2023/06/12 08:06:12;;;;;;;9.40;6.63;;;23.20;62.80;;;;;;5032261;28;20037;-48
2023/06/12 08:08:57;;;;;;;8.40;6.10;;;23.40;62.70;;;;;;5031578;28;20033;-49
2023/06/12 08:11:43;;;;;;;9.55;5.72;;;23.30;61.40;;;;;;5015513;28;20037;-46
2023/06/12 08:14:29;;;;;;;9.82;5.75;;;23.20;61.70;;;;;;5015537;28;20490;-51
2023/06/12 08:17:15;;;;;;;7.47;5.78;;;23.20;62.30;;;;;;5020440;28;20497;-46
2023/06/12 08:20:05;;;;;;;7.40;5.93;;;23.20;61.30;;;;;;5015201;28;20041;-47
2023/06/12 08:22:56;;;;;;;9.27;6.30;;;23.30;61.70;;;;;;5019554;28;20398;-48
2023/06/12 08:25:43;;;;;;;9.68;5.63;;;23.20;62.00;;;;;;5032490;28;20418;-50
2023/06/12 08:28:29;;;;;;;9.98;6.35;;;23.30;62.10;;;;;;5013695;28;20101;-46
2023/06/12 08:31:15;;;;;;;9.63;6.22;;;23.30;62.60;;;;;;5023335;28;20029;-49
2023/06/12 08:34:01;;;;;;;14.35;8.73;;;23.40;63.10;;;;;;5032468;28;20037;-49
2023/06/12 08:36:47;;;;;;;9.13;6.75;;;23.60;63.30;;;;;;5034193;28;20489;-49
2023/06/12 08:39:33;;;;;;;9.30;6.30;;;23.70;63.00;;;;;;5030977;28;20037;-51
2023/06/12 08:42:21;;;;;;;12.32;9.45;;;24.00;63.10;;;;;;5013767;28;20152;-50
2023/06/12 08:45:10;;;;;;;10.18;6.82;;;24.00;62.80;;;;;;5013028;28;20064;-51
2023/06/12 08:47:57;;;;;;;11.48;7.03;;;24.10;62.80;;;;;;5013334;28;20030;-47
2023/06/12 08:50:44;;;;;;;6.93;6.00;;;24.20;62.50;;;;;;5037539;28;20036;-49
2023/06/12 08:53:30;;;;;;;10.57;6.28;;;24.40;61.00;;;;;;5038499;28;20029;-49
2023/06/12 08:56:17;;;;;;;9.48;6.82;;;24.30;59.70;;;;;;5032826;28;20037;-46
2023/06/12 08:59:03;;;;;;;9.90;6.05;;;24.40;60.00;;;;;;5035454;28;20022;-46
2023/06/12 09:01:56;;;;;;;11.35;6.40;;;24.60;59.90;;;;;;5035094;28;20038;-48
2023/06/12 09:04:46;;;;;;;9.73;6.22;;;24.60;58.40;;;;;;5033648;28;20464;-48
2023/06/12 09:07:37;;;;;;;24.85;15.20;;;24.60;58.30;;;;;;5032271;28;20036;-47
2023/06/12 09:10:23;;;;;;;11.45;8.13;;;24.70;58.00;;;;;;5032164;28;20505;-46
2023/06/12 09:13:10;;;;;;;7.82;6.43;;;24.80;58.40;;;;;;5032651;28;20037;-48
2023/06/12 09:15:56;;;;;;;7.82;6.22;;;24.70;59.00;;;;;;5034972;28;20034;-48
2023/06/12 09:18:52;;;;;;;10.77;7.10;;;24.80;58.10;;;;;;5034997;28;20091;-50
2023/06/12 09:21:38;;;;;;;8.43;6.13;;;24.80;57.90;;;;;;5039114;28;20026;-60
2023/06/12 09:24:24;;;;;;;7.95;6.30;;;25.00;57.50;;;;;;5034408;28;20071;-55
2023/06/12 09:27:11;;;;;;;7.32;6.15;;;24.90;57.60;;;;;;5033267;28;20119;-53
2023/06/12 09:30:00;;;;;;;9.73;6.72;;;25.00;57.20;;;;;;5032834;28;20026;-53
2023/06/12 09:32:47;;;;;;;8.32;6.53;;;24.90;57.60;;;;;;5032159;28;20032;-48
2023/06/12 09:35:48;;;;;;;11.30;8.60;;;24.90;57.80;;;;;;5031559;28;20022;-50
2023/06/12 09:38:35;;;;;;;8.23;5.90;;;25.00;57.50;;;;;;5031228;28;20029;-50
2023/06/12 09:41:24;;;;;;;8.18;6.75;;;24.90;57.70;;;;;;5031229;28;20034;-49
2023/06/12 09:44:10;;;;;;;9.98;6.50;;;25.00;57.40;;;;;;5031834;28;20082;-47
2023/06/12 09:47:05;;;;;;;8.82;5.97;;;25.10;56.00;;;;;;5031488;28;20045;-47
2023/06/12 09:49:51;;;;;;;6.47;5.85;;;25.00;55.60;;;;;;5033279;28;20496;-46
2023/06/12 09:52:40;;;;;;;13.15;5.93;;;25.00;55.40;;;;;;5032862;28;20061;-51
2023/06/12 09:55:27;;;;;;;8.82;5.53;;;25.20;55.40;;;;;;5037311;28;20461;-47
2023/06/12 09:58:14;;;;;;;9.20;6.32;;;25.20;55.30;;;;;;5045029;28;20111;-52
2023/06/12 10:01:03;;;;;;;11.25;5.55;;;25.20;55.00;;;;;;5048247;28;20026;-47
2023/06/12 10:03:54;;;;;;;7.85;5.70;;;25.00;53.90;;;;;;5036813;28;20600;-48
2023/06/12 10:06:42;;;;;;;6.85;5.93;;;24.90;54.20;;;;;;5036323;28;20025;-46
2023/06/12 10:09:29;;;;;;;7.45;5.97;;;25.00;54.50;;;;;;5036833;28;20056;-51
2023/06/12 10:12:17;;;;;;;6.55;5.53;;;25.10;54.60;;;;;;5026565;28;20026;-47
2023/06/12 10:15:03;;;;;;;7.13;5.60;;;25.20;54.50;;;;;;5015902;28;20025;-46
2023/06/12 10:17:52;;;;;;;9.00;5.53;;;25.20;54.70;;;;;;5023755;28;20501;-46
2023/06/12 10:20:41;;;;;;;10.75;5.43;;;25.20;54.20;;;;;;5040135;28;20037;-46
2023/06/12 10:23:28;;;;;;;7.35;5.40;;;25.00;53.60;;;;;;5033982;28;20033;-46
2023/06/12 10:26:14;;;;;;;8.40;5.63;;;25.20;53.50;;;;;;5035230;28;20025;-51
2023/06/12 10:29:00;;;;;;;6.88;6.15;;;25.30;53.30;;;;;;5034469;28;20022;-58
2023/06/12 10:31:46;;;;;;;9.70;7.32;;;25.40;54.20;;;;;;5015203;28;20025;-58
2023/06/12 10:34:41;;;;;;;10.65;7.30;;;25.50;53.70;;;;;;5016208;28;20489;-58
2023/06/12 10:37:38;;;;;;;10.32;9.27;;;25.60;53.70;;;;;;5025774;28;20071;-55
2023/06/12 10:40:24;;;;;;;7.95;6.05;;;25.70;54.60;;;;;;5016285;28;20034;-55
2023/06/12 10:43:12;;;;;;;13.18;6.32;;;25.80;54.10;;;;;;5034855;28;20024;-55
2023/06/12 10:45:58;;;;;;;8.52;7.22;;;25.70;54.00;;;;;;5033941;28;20029;-55
2023/06/12 10:48:47;;;;;;;8.65;5.82;;;25.80;54.20;;;;;;5034623;28;20033;-48
2023/06/12 10:51:33;;;;;;;8.52;5.68;;;25.70;52.40;;;;;;5035906;28;20030;-51
2023/06/12 10:54:28;;;;;;;10.80;6.10;;;25.60;52.20;;;;;;5040766;28;20071;-53
2023/06/12 10:57:26;;;;;;;9.50;6.15;;;25.70;52.50;;;;;;5037701;28;20163;-52
2023/06/12 11:00:16;;;;;;;8.45;5.70;;;25.90;52.70;;;;;;5035736;28;20064;-47
2023/06/12 11:03:03;;;;;;;9.68;6.03;;;26.00;52.70;;;;;;5036393;28;20021;-53
2023/06/12 11:05:55;;;;;;;10.32;5.85;;;26.10;53.00;;;;;;5034807;28;20025;-53
2023/06/12 11:08:41;;;;;;;11.05;6.45;;;26.20;52.90;;;;;;5030374;28;20379;-49
2023/06/12 11:11:27;;;;;;;9.27;6.20;;;26.20;52.20;;;;;;5027595;28;20709;-57
2023/06/12 11:14:13;;;;;;;8.32;5.97;;;26.30;52.40;;;;;;5034644;28;20033;-55
2023/06/12 11:16:59;;;;;;;10.63;7.05;;;26.20;52.40;;;;;;5029508;28;20026;-51
2023/06/12 11:19:45;;;;;;;6.60;6.00;;;26.20;52.40;;;;;;5030672;28;20038;-49
2023/06/12 11:22:31;;;;;;;9.23;6.90;;;26.10;53.10;;;;;;5029681;28;20033;-50
2023/06/12 11:25:17;;;;;;;9.10;6.88;;;26.30;53.70;;;;;;5029270;28;20512;-50
2023/06/12 11:28:05;;;;;;;9.45;6.90;;;26.20;54.30;;;;;;5023499;28;20513;-49
2023/06/12 11:30:56;;;;;;;9.32;7.07;;;26.30;54.60;;;;;;5013132;28;20034;-58
2023/06/12 11:33:42;;;;;;;8.82;6.80;;;26.30;54.90;;;;;;5013664;28;20037;-55
2023/06/12 11:36:28;;;;;;;9.23;6.80;;;26.40;54.90;;;;;;5012353;28;20605;-56
2023/06/12 11:39:18;;;;;;;10.38;7.03;;;26.40;54.60;;;;;;5015222;28;20669;-58
2023/06/12 11:42:05;;;;;;;10.88;7.15;;;26.40;54.70;;;;;;5012005;28;20030;-57
2023/06/12 11:44:51;;;;;;;8.10;7.00;;;26.40;54.50;;;;;;5012585;28;20188;-57
2023/06/12 11:47:38;;;;;;;9.38;6.65;;;26.50;54.70;;;;;;5012636;28;20116;-55
2023/06/12 11:50:25;;;;;;;9.38;6.57;;;26.60;54.60;;;;;;5020072;28;20034;-55
2023/06/12 11:53:12;;;;;;;9.20;7.18;;;26.70;54.80;;;;;;5019222;28;20113;-58
2023/06/12 11:56:02;;;;;;;8.20;7.40;;;26.50;54.30;;;;;;5031499;28;20053;-53
2023/06/12 11:58:50;;;;;;;8.95;7.28;;;26.40;54.00;;;;;;5032120;28;20030;-60
2023/06/12 12:01:37;;;;;;;8.07;7.28;;;26.40;54.00;;;;;;5014397;28;20562;-59
2023/06/12 12:04:23;;;;;;;8.95;7.60;;;26.60;54.10;;;;;;5012531;28;20038;-56
2023/06/12 12:07:09;;;;;;;13.82;8.13;;;26.60;53.30;;;;;;5012268;28;20387;-59
2023/06/12 12:10:07;;;;;;;8.23;6.88;;;26.40;53.10;;;;;;5012074;28;20025;-57
2023/06/12 12:13:03;;;;;;;9.50;7.25;;;26.30;53.60;;;;;;5013664;28;20112;-59
2023/06/12 12:15:49;;;;;;;9.27;7.47;;;26.10;53.50;;;;;;5018170;28;20092;-60
2023/06/12 12:18:42;;;;;;;7.78;6.97;;;26.20;53.90;;;;;;5012236;28;20038;-56
2023/06/12 12:21:28;;;;;;;10.13;7.22;;;26.60;54.00;;;;;;5030991;28;20076;-57
2023/06/12 12:24:14;;;;;;;7.78;6.88;;;26.70;53.90;;;;;;5033404;28;20087;-59
2023/06/12 12:26:59;;;;;;;9.02;8.15;;;26.80;53.90;;;;;;5032872;28;20039;-59
2023/06/12 12:29:46;;;;;;;8.55;7.68;;;27.00;54.00;;;;;;5017104;28;20033;-59
2023/06/12 12:32:32;;;;;;;9.00;7.07;;;27.20;53.30;;;;;;5012641;28;20033;-58
2023/06/12 12:35:19;;;;;;;8.70;6.60;;;27.30;53.50;;;;;;5012998;28;20034;-63
2023/06/12 12:38:05;;;;;;;7.38;6.50;;;27.10;53.00;;;;;;5023997;28;20036;-60
2023/06/12 12:40:51;;;;;;;7.63;6.60;;;27.10;53.40;;;;;;5028638;28;20442;-51
2023/06/12 12:43:38;;;;;;;7.60;6.80;;;27.10;52.60;;;;;;5032178;28;20021;-51
2023/06/12 12:46:27;;;;;;;7.80;6.70;;;27.10;52.70;;;;;;5031047;28;20026;-52
2023/06/12 12:49:13;;;;;;;7.90;6.88;;;27.20;52.90;;;;;;5030635;28;20048;-51
2023/06/12 12:51:59;;;;;;;9.15;6.70;;;27.30;53.10;;;;;;5012229;28;20061;-54
2023/06/12 12:54:46;;;;;;;6.70;6.05;;;27.60;53.10;;;;;;5012621;28;20038;-55
2023/06/12 12:57:38;;;;;;;7.90;6.00;;;27.90;53.70;;;;;;5031033;28;20033;-55
2023/06/12 13:00:24;;;;;;;6.65;5.82;;;28.00;52.80;;;;;;5030927;28;20559;-55
2023/06/12 13:03:11;;;;;;;11.57;6.18;;;28.10;53.10;;;;;;5031949;28;20061;-52
2023/06/12 13:05:57;;;;;;;6.72;5.70;;;28.20;52.10;;;;;;5024532;28;20033;-52
2023/06/12 13:08:43;;;;;;;7.32;6.30;;;28.00;51.80;;;;;;5029061;28;20506;-51
2023/06/12 13:11:29;;;;;;;10.60;7.25;;;27.90;52.10;;;;;;5029875;28;20374;-52
2023/06/12 13:14:15;;;;;;;9.30;6.13;;;27.80;52.60;;;;;;5009848;28;20021;-51
2023/06/12 13:17:01;;;;;;;8.95;5.72;;;27.90;52.60;;;;;;5010672;28;20042;-55
2023/06/12 13:19:47;;;;;;;10.35;5.88;;;28.10;52.30;;;;;;5018420;28;20478;-49
2023/06/12 13:22:33;;;;;;;7.60;6.32;;;28.20;52.40;;;;;;5024181;28;20565;-53
2023/06/12 13:25:19;;;;;;;7.82;5.70;;;28.50;53.00;;;;;;5019552;28;20026;-51
2023/06/12 13:28:06;;;;;;;9.50;7.25;;;28.60;52.90;;;;;;5010386;28;20030;-47
2023/06/12 13:30:52;;;;;;;14.32;12.82;;;28.90;53.00;;;;;;5015447;28;20022;-45
2023/06/12 13:33:37;;;;;;;8.10;5.72;;;29.00;53.10;;;;;;5014563;28;20557;-44
2023/06/12 13:36:23;;;;;;;7.70;5.57;;;28.90;52.00;;;;;;5038349;28;20118;-47
2023/06/12 13:39:10;;;;;;;6.90;5.95;;;29.00;51.80;;;;;;5053360;28;20120;-48
2023/06/12 13:41:56;;;;;;;14.85;9.65;;;29.10;51.60;;;;;;5039726;28;20498;-48
2023/06/12 13:44:42;;;;;;;9.13;7.90;;;29.10;51.60;;;;;;5021469;28;20502;-49
2023/06/12 13:47:28;;;;;;;6.45;5.85;;;29.20;51.60;;;;;;5024391;28;20080;-51
2023/06/12 13:50:17;;;;;;;9.05;5.78;;;29.30;50.30;;;;;;5026423;28;20031;-49
2023/06/12 13:53:03;;;;;;;6.47;5.80;;;29.30;50.40;;;;;;5031164;28;20056;-53
2023/06/12 13:55:49;;;;;;;6.03;5.50;;;29.40;51.40;;;;;;5034874;28;20029;-47
2023/06/12 13:58:35;;;;;;;8.73;6.43;;;29.30;50.70;;;;;;5025126;28;20037;-48
2023/06/12 14:01:21;;;;;;;8.55;6.00;;;29.30;50.70;;;;;;5037532;28;20409;-47
2023/06/12 14:04:07;;;;;;;8.38;5.65;;;29.50;50.70;;;;;;5034409;28;20030;-46
2023/06/12 14:06:54;;;;;;;8.18;6.07;;;29.50;50.90;;;;;;5032012;28;20045;-47
2023/06/12 14:09:40;;;;;;;6.57;5.28;;;29.70;50.00;;;;;;5037848;28;20033;-49
2023/06/12 14:12:26;;;;;;;7.82;6.00;;;29.80;50.90;;;;;;5027481;28;20041;-47
2023/06/12 14:15:13;;;;;;;7.68;5.60;;;29.90;50.90;;;;;;5027003;28;20033;-47
2023/06/12 14:18:03;;;;;;;8.02;5.60;;;29.70;50.90;;;;;;5023097;28;20034;-51
2023/06/12 14:20:49;;;;;;;6.82;5.50;;;29.90;51.70;;;;;;5017378;28;20549;-49
2023/06/12 14:23:35;;;;;;;7.82;6.32;;;30.20;51.70;;;;;;5015518;28;20026;-61